Aberdeen, Kentucky
Current Conditions -  °F | °C
As of 3:53 AM on Saturday 29 Nov 2014 (Local Time) from KBWG Reporting Station
Overcast Overcast  
Wind Chill:   Ceiling: 4200
Heat Index:   Visibility: 10mi
Dew Point: -4°   Wind: 12mph
Humidity: 49%   Direction: 190°S
Pressure: 30.08"   Gusts: NA
Location:  37.25°N, 86.68°W
Report Text: KBWG 290953Z AUTO 19010KT 10SM OVC042 06/M04 A3008 RMK AO2 SLP189 T00561044
Loading
Personal Weather Stations






























Interactive Weather Map New forecast layout! Learn more

10-Day Weather Forecast

Advertisements
Track Severe Weather on mobile